Time;durP1;ratioP1;P1;durP2;ratioP2;P2;SDS_P1;SDS_P2;PMS_P1;PMS_P2;Temp;Humidity;BMP_temperature;BMP_pressure;BME280_temperature;BME280_humidity;BME280_pressure;Samples;Min_cycle;Max_cycle;Signal;HPM_P1;HPM_P2
2022/07/03 00:03:39;;;;;;;5.70;4.45;;;;;;;17.05;100.00;101690.72;10304919;28;20129;-65
2022/07/03 00:08:40;;;;;;;6.90;5.13;;;;;;;17.02;100.00;101696.81;10339378;28;20074;-63
2022/07/03 00:13:40;;;;;;;5.70;4.43;;;;;;;17.01;100.00;101686.81;10330204;28;20042;-65
2022/07/03 00:18:41;;;;;;;4.82;4.18;;;;;;;16.92;100.00;101692.06;10330142;28;20081;-65
2022/07/03 00:23:46;;;;;;;5.05;3.05;;;;;;;16.86;100.00;101692.34;10327355;28;20038;-66
2022/07/03 00:28:47;;;;;;;6.40;3.78;;;;;;;16.75;100.00;101689.53;10367328;28;20133;-65
2022/07/03 00:33:47;;;;;;;6.20;3.20;;;;;;;16.73;100.00;101685.38;10369016;28;20053;-65
2022/07/03 00:38:48;;;;;;;7.10;3.15;;;;;;;16.79;100.00;101689.00;10367379;28;20030;-64
2022/07/03 00:43:48;;;;;;;4.10;3.03;;;;;;;16.83;100.00;101690.97;10400845;28;20042;-64
2022/07/03 00:48:50;;;;;;;6.55;3.00;;;;;;;16.83;100.00;101684.59;10369225;28;20038;-65
2022/07/03 00:53:52;;;;;;;4.97;3.13;;;;;;;16.78;100.00;101674.22;10379296;28;20062;-65
2022/07/03 00:58:54;;;;;;;4.47;2.80;;;;;;;16.71;100.00;101677.28;10357663;28;20041;-64
2022/07/03 01:04:04;;;;;;;6.70;3.00;;;;;;;16.59;100.00;101676.72;10398095;28;20044;-65
2022/07/03 01:09:05;;;;;;;4.53;3.08;;;;;;;16.48;100.00;101669.47;10367698;28;20037;-65
2022/07/03 01:14:36;;;;;;;6.00;3.85;;;;;;;16.38;100.00;101667.50;10365975;28;20053;-64
2022/07/03 01:19:43;;;;;;;7.95;4.10;;;;;;;16.25;100.00;101660.53;10359922;28;20093;-65
2022/07/03 01:25:03;;;;;;;5.88;3.90;;;;;;;16.15;100.00;101654.94;10287888;28;20514;-64
2022/07/03 01:30:10;;;;;;;6.18;4.15;;;;;;;16.12;100.00;101655.47;10351277;28;20053;-65
2022/07/03 01:35:15;;;;;;;;;;;;;;;16.04;100.00;101654.06;10327524;28;20043;-65
2022/07/03 01:40:16;;;;;;;6.32;4.00;;;;;;;15.97;100.00;101641.53;10357796;28;19917;-65
2022/07/03 01:45:17;;;;;;;6.97;4.25;;;;;;;15.85;100.00;101648.13;10301739;28;20514;-65
2022/07/03 01:50:17;;;;;;;6.45;4.78;;;;;;;15.78;100.00;101636.47;10325186;28;20034;-65
2022/07/03 01:55:18;;;;;;;7.38;4.75;;;;;;;15.74;100.00;101627.00;10340595;28;20049;-65
2022/07/03 02:00:20;;;;;;;6.15;4.68;;;;;;;15.69;100.00;101624.19;10356931;28;20031;-66
2022/07/03 02:05:35;;;;;;;6.70;5.07;;;;;;;15.53;100.00;101621.31;10323987;28;20057;-65
2022/07/03 02:10:45;;;;;;;5.68;4.53;;;;;;;15.47;100.00;101624.34;10298700;28;20101;-64
2022/07/03 02:15:48;;;;;;;6.80;4.80;;;;;;;15.34;100.00;101617.34;10308850;28;20047;-65
2022/07/03 02:20:55;;;;;;;9.63;5.55;;;;;;;15.22;100.00;101616.72;10298439;28;20039;-65
2022/07/03 02:25:56;;;;;;;8.80;6.03;;;;;;;15.09;100.00;101612.47;10298438;28;20039;-65
2022/07/03 02:30:58;;;;;;;9.63;6.38;;;;;;;14.98;100.00;101607.94;10313527;28;20058;-65
2022/07/03 02:35:59;;;;;;;8.02;6.78;;;;;;;14.84;100.00;101610.31;10282745;28;20047;-65
2022/07/03 02:41:13;;;;;;;9.32;7.57;;;;;;;14.76;100.00;101617.19;10340245;28;20035;-65
2022/07/03 02:46:51;;;;;;;10.55;8.95;;;;;;;14.67;100.00;101616.81;10355308;28;20035;-65
2022/07/03 02:52:22;;;;;;;10.25;7.50;;;;;;;14.58;100.00;101614.81;10351797;28;20038;-65
2022/07/03 02:57:22;;;;;;;10.07;7.60;;;;;;;14.51;100.00;101620.53;10292517;28;20049;-65
2022/07/03 03:02:25;;;;;;;8.70;7.28;;;;;;;14.40;100.00;101602.16;10284825;28;20034;-65
2022/07/03 03:07:29;;;;;;;9.77;8.32;;;;;;;14.37;100.00;101605.47;10343204;28;20454;-65
2022/07/03 03:12:31;;;;;;;13.18;9.88;;;;;;;14.33;100.00;101608.72;10324526;28;20099;-66
2022/07/03 03:17:51;;;;;;;12.40;9.75;;;;;;;14.29;100.00;101610.34;10341271;28;20041;-65
2022/07/03 03:23:13;;;;;;;20.08;9.75;;;;;;;14.28;100.00;101617.00;10342432;28;20577;-65
2022/07/03 03:28:14;;;;;;;14.18;9.80;;;;;;;14.25;100.00;101609.19;10323298;28;20042;-65
2022/07/03 03:33:14;;;;;;;14.40;10.05;;;;;;;14.26;100.00;101601.72;10339400;28;20449;-64
2022/07/03 03:38:15;;;;;;;12.95;9.85;;;;;;;14.28;100.00;101599.53;10323655;28;20085;-65
2022/07/03 03:43:15;;;;;;;11.00;9.80;;;;;;;14.39;100.00;101600.50;10342623;28;20041;-66
2022/07/03 03:48:15;;;;;;;15.07;11.15;;;;;;;14.44;100.00;101598.59;10345674;28;20265;-64
2022/07/03 03:53:16;;;;;;;12.18;10.27;;;;;;;14.50;100.00;101605.00;10352204;28;20034;-66
2022/07/03 03:58:16;;;;;;;12.20;11.00;;;;;;;14.59;100.00;101594.31;10362359;28;20414;-64
2022/07/03 04:03:17;;;;;;;12.50;10.52;;;;;;;14.72;100.00;101597.50;10331810;28;20037;-63
2022/07/03 04:08:18;;;;;;;12.30;10.50;;;;;;;14.81;100.00;101602.53;10348221;28;20149;-66
2022/07/03 04:13:19;;;;;;;12.82;10.48;;;;;;;14.90;100.00;101600.94;10369034;28;20402;-64
2022/07/03 04:18:19;;;;;;;12.68;10.52;;;;;;;15.01;100.00;101627.66;10348936;28;20030;-64
2022/07/03 04:23:20;;;;;;;13.70;11.68;;;;;;;15.11;100.00;101616.63;10326895;28;20045;-64
2022/07/03 04:28:21;;;;;;;11.35;10.20;;;;;;;15.12;100.00;101620.25;10329562;28;20035;-65
2022/07/03 04:33:21;;;;;;;11.45;8.63;;;;;;;15.11;100.00;101608.31;10330167;28;20034;-65
2022/07/03 04:38:22;;;;;;;8.90;8.07;;;;;;;15.13;100.00;101608.88;10328533;28;20038;-65
2022/07/03 04:43:22;;;;;;;9.88;8.60;;;;;;;15.19;100.00;101614.44;10328259;28;20046;-65
2022/07/03 04:48:23;;;;;;;10.68;8.00;;;;;;;15.19;100.00;101609.72;10353054;28;20053;-65
2022/07/03 04:53:23;;;;;;;10.68;7.47;;;;;;;15.14;100.00;101610.53;10365991;28;20034;-66
2022/07/03 04:58:24;;;;;;;7.53;6.72;;;;;;;15.14;100.00;101607.78;10370819;28;20060;-64
2022/07/03 05:03:24;;;;;;;7.47;6.72;;;;;;;15.22;100.00;101613.94;10368195;28;20061;-64
2022/07/03 05:08:25;;;;;;;7.20;6.40;;;;;;;15.24;100.00;101617.28;10365259;28;20611;-65
2022/07/03 05:13:25;;;;;;;8.20;6.25;;;;;;;15.24;100.00;101620.03;10367826;28;20041;-65
2022/07/03 05:18:26;;;;;;;9.70;6.30;;;;;;;15.24;100.00;101618.09;10355847;28;20034;-64
2022/07/03 05:23:26;;;;;;;9.75;6.70;;;;;;;15.23;100.00;101627.50;10326069;28;20042;-64
2022/07/03 05:28:27;;;;;;;10.60;7.65;;;;;;;15.24;100.00;101628.38;10328044;28;20035;-64
2022/07/03 05:33:27;;;;;;;9.23;8.18;;;;;;;15.29;100.00;101620.06;10326723;28;20030;-65
2022/07/03 05:43:47;;;;;;;10.32;8.27;;;;;;;15.46;100.00;101623.50;10368032;28;20037;-64
2022/07/03 05:48:47;;;;;;;14.52;8.05;;;;;;;15.55;100.00;101626.63;10337143;28;20046;-64
2022/07/03 05:53:48;;;;;;;10.18;7.13;;;;;;;15.91;100.00;101629.56;10341329;28;20045;-65
2022/07/03 05:58:48;;;;;;;12.10;6.63;;;;;;;16.40;100.00;101622.78;10327853;28;20054;-64
2022/07/03 06:03:49;;;;;;;9.38;5.25;;;;;;;17.05;100.00;101620.31;10326852;28;20162;-65
2022/07/03 06:08:50;;;;;;;10.45;4.97;;;;;;;17.81;100.00;101622.06;10324533;28;20049;-65
2022/07/03 06:13:50;;;;;;;8.90;4.05;;;;;;;18.51;100.00;101618.34;10324038;28;20034;-65
2022/07/03 06:18:51;;;;;;;8.60;3.80;;;;;;;19.23;100.00;101624.19;10326240;28;20026;-65
2022/07/03 06:23:51;;;;;;;4.25;2.95;;;;;;;19.82;100.00;101626.91;10325815;28;20039;-65
2022/07/03 06:28:52;;;;;;;6.93;2.88;;;;;;;19.92;100.00;101627.59;10326557;28;20042;-63
2022/07/03 06:33:52;;;;;;;6.30;3.15;;;;;;;19.83;100.00;101626.59;10395219;28;20105;-65
2022/07/03 06:38:52;;;;;;;5.28;2.78;;;;;;;20.12;100.00;101620.09;10357930;28;20069;-65
2022/07/03 06:43:53;;;;;;;5.47;2.15;;;;;;;20.52;100.00;101623.41;10355742;28;20030;-64
2022/07/03 06:48:53;;;;;;;3.33;1.80;;;;;;;20.29;100.00;101620.38;10341225;28;20413;-65
2022/07/03 06:53:54;;;;;;;3.35;1.42;;;;;;;20.24;100.00;101622.44;10375959;28;20053;-65
2022/07/03 06:58:54;;;;;;;2.78;1.30;;;;;;;20.56;100.00;101616.06;10376760;28;20056;-65
2022/07/03 07:03:55;;;;;;;4.28;1.33;;;;;;;20.74;100.00;101612.44;10383767;28;20504;-65
2022/07/03 07:08:55;;;;;;;4.93;1.52;;;;;;;20.74;100.00;101620.84;10379457;28;20037;-65
2022/07/03 07:13:56;;;;;;;5.63;1.33;;;;;;;21.14;100.00;101629.66;10381259;28;20038;-64
2022/07/03 07:18:56;;;;;;;1.45;1.02;;;;;;;21.63;100.00;101618.13;10374995;28;20044;-65
2022/07/03 07:23:56;;;;;;;5.10;1.85;;;;;;;21.91;97.12;101618.94;10376481;28;20049;-64
2022/07/03 07:28:57;;;;;;;5.07;0.95;;;;;;;22.21;96.90;101623.03;10385961;28;20042;-64
2022/07/03 07:33:57;;;;;;;5.13;1.00;;;;;;;22.15;92.91;101604.66;10385893;28;20048;-64
2022/07/03 07:38:58;;;;;;;1.77;0.85;;;;;;;21.99;98.19;101640.63;10382308;28;20033;-65
2022/07/03 07:43:58;;;;;;;3.03;1.10;;;;;;;21.56;99.63;101650.19;10382687;28;20030;-65
2022/07/03 07:48:59;;;;;;;4.22;1.33;;;;;;;22.00;100.00;101655.50;10382406;28;20493;-65
2022/07/03 07:53:59;;;;;;;4.28;1.30;;;;;;;22.21;100.00;101651.09;10395910;28;20044;-65
2022/07/03 07:59:00;;;;;;;3.65;1.30;;;;;;;22.13;98.57;101649.03;10380192;28;20029;-66
2022/07/03 08:09:20;;;;;;;4.60;0.98;;;;;;;21.79;100.00;101585.00;10378827;28;20046;-65
2022/07/03 08:14:20;;;;;;;2.90;1.55;;;;;;;22.38;100.00;101638.41;10384601;28;20030;-64
2022/07/03 08:19:20;;;;;;;8.52;1.65;;;;;;;22.12;99.05;101614.56;10376504;28;20045;-65
2022/07/03 08:24:21;;;;;;;4.55;1.63;;;;;;;22.60;97.12;101646.03;10369011;28;20033;-65
2022/07/03 08:29:22;;;;;;;5.45;1.20;;;;;;;22.98;95.52;101630.44;10397599;28;20049;-65
2022/07/03 08:34:22;;;;;;;3.53;1.00;;;;;;;23.40;91.72;101624.63;10359061;28;20064;-65
2022/07/03 08:39:23;;;;;;;3.45;1.08;;;;;;;23.35;88.98;101627.56;10368143;28;20098;-65
2022/07/03 08:44:24;;;;;;;3.03;1.20;;;;;;;22.79;90.38;101627.03;10382111;28;20038;-64
2022/07/03 08:49:24;;;;;;;5.43;1.15;;;;;;;22.52;92.65;101639.19;10377511;28;20038;-66
2022/07/03 08:54:25;;;;;;;2.65;1.10;;;;;;;22.64;93.08;101647.88;10386238;28;20046;-64
2022/07/03 08:59:25;;;;;;;5.57;1.58;;;;;;;23.15;90.32;101634.53;10384746;28;20046;-65
2022/07/03 09:04:26;;;;;;;4.13;1.15;;;;;;;23.65;88.82;101631.50;10378310;28;20038;-65
2022/07/03 09:09:27;;;;;;;5.60;1.83;;;;;;;23.50;89.71;101652.44;10365477;28;20034;-65
2022/07/03 09:14:27;;;;;;;4.82;1.83;;;;;;;22.91;88.67;101640.50;10385871;28;20042;-65
2022/07/03 09:19:42;;;;;;;4.05;1.67;;;;;;;22.75;93.42;101635.25;10409587;28;20076;-66
2022/07/03 09:24:42;;;;;;;4.35;1.40;;;;;;;23.39;90.75;101651.06;10393088;28;20072;-64
2022/07/03 09:29:59;;;;;;;3.55;1.60;;;;;;;23.67;94.66;101662.06;10397852;28;20509;-65
2022/07/03 09:35:22;;;;;;;5.00;1.83;;;;;;;23.71;93.49;101651.84;10367682;28;20564;-65
2022/07/03 09:40:24;;;;;;;2.85;1.60;;;;;;;23.81;90.11;101645.94;10367485;28;20054;-65
2022/07/03 09:45:24;;;;;;;6.53;2.20;;;;;;;23.65;90.12;101658.75;10369327;28;20060;-65
2022/07/03 09:50:25;;;;;;;6.00;1.42;;;;;;;23.70;89.88;101662.25;10368647;28;20064;-65
2022/07/03 09:55:25;;;;;;;2.38;0.90;;;;;;;23.57;89.50;101657.59;10352269;28;20112;-65
2022/07/03 10:00:27;;;;;;;3.58;1.35;;;;;;;23.47;88.64;101650.25;10326645;28;20036;-65
2022/07/03 10:05:35;;;;;;;3.40;1.38;;;;;;;23.25;88.15;101664.34;10356741;28;20049;-67
2022/07/03 10:10:44;;;;;;;5.05;1.38;;;;;;;22.98;91.50;101668.94;10326553;28;20061;-65
2022/07/03 10:15:44;;;;;;;3.95;1.20;;;;;;;23.38;91.30;101666.25;10326891;28;20027;-63
2022/07/03 10:20:46;;;;;;;3.70;1.27;;;;;;;23.91;87.35;101653.28;10325629;28;20043;-66
2022/07/03 10:25:47;;;;;;;5.50;1.58;;;;;;;24.17;85.44;101648.53;10325747;28;20045;-66
2022/07/03 10:30:47;;;;;;;4.22;1.42;;;;;;;24.24;84.01;101650.84;10325628;28;20094;-66
2022/07/03 10:35:52;;;;;;;2.25;1.00;;;;;;;24.22;83.94;101650.38;10324961;28;20062;-65
2022/07/03 10:46:39;;;;;;;2.65;0.90;;;;;;;24.84;83.18;101654.06;10324241;28;20034;-66
2022/07/03 10:51:46;;;;;;;3.40;0.65;;;;;;;24.64;76.72;101635.84;10328187;28;20413;-66
2022/07/03 10:56:58;;;;;;;1.95;0.60;;;;;;;24.86;79.11;101640.47;10363584;28;20038;-66
2022/07/03 11:02:26;;;;;;;2.80;0.63;;;;;;;25.57;75.84;101631.53;10365491;28;20053;-66
2022/07/03 11:07:34;;;;;;;2.70;0.80;;;;;;;25.45;74.49;101623.78;10354652;28;20034;-65
2022/07/03 11:12:55;;;;;;;2.78;1.40;;;;;;;26.06;69.41;101602.91;10379123;28;20045;-65
2022/07/03 11:18:05;;;;;;;1.00;0.50;;;;;;;25.87;69.13;101601.34;10365258;28;20038;-67
2022/07/03 11:23:27;;;;;;;1.23;0.43;;;;;;;25.39;67.45;101601.75;10365318;28;20034;-67
2022/07/03 11:28:31;;;;;;;1.42;0.63;;;;;;;26.03;68.09;101609.25;10366537;28;20053;-65
2022/07/03 11:33:44;;;;;;;2.10;0.75;;;;;;;26.41;63.41;101574.41;10365762;28;20049;-67
2022/07/03 11:38:46;;;;;;;0.75;0.70;;;;;;;26.73;64.05;101570.81;10394913;28;20069;-67
2022/07/03 11:43:51;;;;;;;3.00;0.50;;;;;;;26.81;63.00;101582.34;10395364;28;20049;-66
2022/07/03 11:49:11;;;;;;;1.80;0.50;;;;;;;27.25;62.70;101577.91;10339408;28;20042;-66
2022/07/03 11:54:11;;;;;;;1.70;0.60;;;;;;;27.97;60.35;101571.78;10324759;28;20050;-66
2022/07/03 11:59:12;;;;;;;3.15;0.43;;;;;;;28.44;56.76;101561.84;10361213;28;20389;-66
2022/07/03 12:04:14;;;;;;;0.73;0.50;;;;;;;28.88;58.25;101573.25;10365935;28;20038;-68
2022/07/03 12:09:21;;;;;;;1.27;0.60;;;;;;;28.24;57.03;101581.50;10370629;28;20064;-68
2022/07/03 12:14:43;;;;;;;4.35;0.50;;;;;;;27.56;60.56;101588.66;10386120;28;20042;-67
2022/07/03 12:19:48;;;;;;;1.17;0.52;;;;;;;27.95;60.12;101591.13;10372626;28;20197;-66
2022/07/03 12:25:11;;;;;;;1.95;0.65;;;;;;;28.24;59.10;101587.19;10402849;28;20524;-67
2022/07/03 12:30:17;;;;;;;2.15;0.60;;;;;;;28.91;56.59;101578.19;10369265;28;20061;-64
2022/07/03 12:35:21;;;;;;;1.38;0.50;;;;;;;29.03;55.56;101563.94;10399581;28;20042;-67
2022/07/03 12:40:22;;;;;;;1.85;0.50;;;;;;;28.89;54.07;101560.72;10401210;28;20092;-67
2022/07/03 12:45:24;;;;;;;2.20;0.50;;;;;;;28.11;57.49;101572.22;10370868;28;20042;-66
2022/07/03 12:50:25;;;;;;;1.25;0.50;;;;;;;28.66;55.81;101564.13;10367194;28;20046;-65
2022/07/03 12:55:29;;;;;;;3.17;0.73;;;;;;;29.32;54.00;101550.53;10369195;28;20030;-67
2022/07/03 13:00:29;;;;;;;0.73;0.50;;;;;;;29.34;52.38;101543.28;10359577;28;20045;-67
2022/07/03 13:05:30;;;;;;;3.08;0.77;;;;;;;29.54;53.92;101546.19;10366641;28;20041;-66
2022/07/03 13:10:30;;;;;;;2.40;0.50;;;;;;;29.49;51.95;101541.63;10367471;28;20078;-65
2022/07/03 13:15:31;;;;;;;4.53;1.10;;;;;;;29.47;53.44;101558.19;10329145;28;20042;-67
2022/07/03 13:20:32;;;;;;;3.17;0.82;;;;;;;29.68;55.85;101557.88;10327572;28;20049;-66
2022/07/03 13:25:34;;;;;;;3.50;0.80;;;;;;;28.76;55.78;101563.63;10327506;28;20043;-68
2022/07/03 13:30:35;;;;;;;3.33;0.88;;;;;;;27.46;59.14;101568.50;10327102;28;20065;-66
2022/07/03 13:35:36;;;;;;;3.20;0.77;;;;;;;27.01;61.80;101567.34;10341577;28;20121;-65
2022/07/03 13:40:39;;;;;;;2.00;0.80;;;;;;;26.92;59.49;101566.63;10350736;28;20037;-66
2022/07/03 13:45:39;;;;;;;2.10;0.77;;;;;;;26.23;60.99;101574.56;10363868;28;20039;-66
2022/07/03 13:50:43;;;;;;;1.67;0.75;;;;;;;27.16;60.93;101566.69;10326926;28;20065;-66
2022/07/03 13:55:43;;;;;;;3.28;0.70;;;;;;;27.89;60.26;101562.25;10326505;28;20118;-68
2022/07/03 14:00:44;;;;;;;7.55;1.60;;;;;;;26.38;69.24;101599.34;10326134;28;20042;-67
2022/07/03 14:05:44;;;;;;;6.82;1.30;;;;;;;25.65;76.27;101612.91;10365653;28;20073;-68
2022/07/03 14:10:45;;;;;;;4.75;1.35;;;;;;;24.78;80.33;101622.41;10386461;28;20414;-65
2022/07/03 14:15:46;;;;;;;6.82;1.60;;;;;;;24.41;83.27;101615.44;10388010;28;20040;-65
2022/07/03 14:20:46;;;;;;;5.88;1.33;;;;;;;23.71;87.63;101632.16;10353859;28;20054;-65
2022/07/03 14:25:46;;;;;;;4.53;1.10;;;;;;;22.98;90.78;101615.59;10322884;28;20034;-66
2022/07/03 14:36:06;;;;;;;5.10;1.20;;;;;;;22.17;100.00;101648.06;10323568;28;20042;-66
2022/07/03 14:41:07;;;;;;;6.47;1.40;;;;;;;21.36;100.00;101664.56;10325918;28;20042;-66
2022/07/03 14:46:07;;;;;;;6.78;1.55;;;;;;;20.82;100.00;101688.44;10325653;28;20532;-65
2022/07/03 14:51:08;;;;;;;8.77;2.20;;;;;;;20.00;100.00;101748.25;10332255;28;20042;-65
2022/07/03 14:56:11;;;;;;;8.15;2.50;;;;;;;18.27;100.00;101777.97;10365455;28;20034;-64
2022/07/03 15:01:12;;;;;;;2.97;1.73;;;;;;;17.24;100.00;101773.59;10387361;28;20050;-66
2022/07/03 15:06:13;;;;;;;3.40;1.88;;;;;;;17.13;100.00;101762.47;10379562;28;20111;-64
2022/07/03 15:16:37;;;;;;;1.90;1.00;;;;;;;17.55;100.00;101761.38;10375156;28;20493;-65
2022/07/03 15:21:37;;;;;;;2.35;1.02;;;;;;;17.73;100.00;101740.44;10354983;28;20041;-64
2022/07/03 15:26:38;;;;;;;1.95;1.25;;;;;;;17.28;100.00;101699.56;10375311;28;20034;-64
2022/07/03 15:31:38;;;;;;;1.30;1.20;;;;;;;17.64;100.00;101749.66;10356441;28;20034;-65
2022/07/03 15:36:52;;;;;;;2.45;1.30;;;;;;;18.93;100.00;101748.06;10375773;28;20088;-65
2022/07/03 15:42:13;;;;;;;1.95;1.33;;;;;;;21.34;100.00;101726.47;10386707;28;20116;-65
2022/07/03 15:47:20;;;;;;;2.20;0.80;;;;;;;22.88;100.00;101716.94;10387383;28;20034;-65
2022/07/03 15:52:20;;;;;;;1.48;1.15;;;;;;;23.35;100.00;101737.97;10383740;28;20046;-66
2022/07/03 15:57:40;;;;;;;2.28;0.80;;;;;;;24.20;100.00;101714.56;10384552;28;20045;-65
2022/07/03 16:03:18;;;;;;;2.22;0.70;;;;;;;24.28;100.00;101722.22;10382507;28;20057;-65
2022/07/03 16:08:18;;;;;;;1.98;0.68;;;;;;;23.73;100.00;101745.13;10331237;28;20394;-66
2022/07/03 16:13:28;;;;;;;1.55;0.80;;;;;;;22.61;100.00;101768.34;10364264;28;20037;-66
2022/07/03 16:18:29;;;;;;;2.33;0.90;;;;;;;21.67;100.00;101753.69;10356645;28;20049;-66
2022/07/03 16:23:29;;;;;;;1.73;1.10;;;;;;;20.47;100.00;101769.75;10372119;28;20034;-66
2022/07/03 16:28:30;;;;;;;5.75;1.20;;;;;;;19.84;100.00;101762.38;10310747;28;20070;-66
2022/07/03 16:33:33;;;;;;;2.63;1.20;;;;;;;19.58;100.00;101756.19;10290308;28;20039;-66
2022/07/03 16:38:40;;;;;;;2.17;1.02;;;;;;;19.55;100.00;101754.84;10287845;28;20039;-66
2022/07/03 16:43:41;;;;;;;2.25;1.00;;;;;;;19.64;100.00;101759.78;10304949;28;20486;-66
2022/07/03 16:48:48;;;;;;;2.33;1.00;;;;;;;20.03;100.00;101750.44;10317879;28;20042;-66
2022/07/03 16:53:48;;;;;;;1.98;1.08;;;;;;;20.21;100.00;101762.81;10329556;28;20483;-65
2022/07/03 16:58:49;;;;;;;2.97;1.58;;;;;;;20.02;100.00;101759.97;10346047;28;20045;-65
2022/07/03 17:03:49;;;;;;;2.60;1.10;;;;;;;19.59;100.00;101762.59;10358522;28;20451;-65
2022/07/03 17:08:50;;;;;;;2.60;1.10;;;;;;;19.62;100.00;101768.44;10323112;28;20046;-65
2022/07/03 17:13:50;;;;;;;3.60;1.98;;;;;;;19.46;100.00;101764.97;10311704;28;20035;-64
2022/07/03 17:18:51;;;;;;;5.28;1.30;;;;;;;19.66;100.00;101771.50;10314920;28;20030;-66
2022/07/03 17:23:52;;;;;;;2.78;1.20;;;;;;;19.52;100.00;101794.50;10314990;28;20046;-64
2022/07/03 17:28:58;;;;;;;5.22;1.23;;;;;;;18.95;100.00;101776.50;10343872;28;20049;-65
2022/07/03 17:34:00;;;;;;;3.95;1.25;;;;;;;18.78;100.00;101774.06;10313650;28;20527;-65
2022/07/03 17:39:00;;;;;;;5.90;1.17;;;;;;;18.81;100.00;101765.19;10313293;28;20046;-65
2022/07/03 17:44:01;;;;;;;4.07;1.10;;;;;;;18.93;100.00;101774.03;10344899;28;20045;-66
2022/07/03 17:49:01;;;;;;;5.57;1.27;;;;;;;18.74;100.00;101779.38;10310690;28;20418;-65
2022/07/03 17:54:02;;;;;;;2.05;0.82;;;;;;;18.42;100.00;101781.78;10334346;28;20042;-65
2022/07/03 17:59:03;;;;;;;4.85;1.27;;;;;;;18.27;100.00;101786.31;10337603;28;20047;-65
2022/07/03 18:04:06;;;;;;;4.97;1.35;;;;;;;18.26;100.00;101778.25;10311897;28;20090;-66
2022/07/03 18:09:25;;;;;;;2.58;1.38;;;;;;;18.14;100.00;101781.34;10312213;28;20499;-65
2022/07/03 18:14:31;;;;;;;2.83;1.38;;;;;;;17.88;100.00;101781.41;10357499;28;20215;-65
2022/07/03 18:19:32;;;;;;;6.75;1.65;;;;;;;17.62;100.00;101788.09;10355719;28;20038;-64
2022/07/03 18:24:35;;;;;;;4.57;1.30;;;;;;;17.49;100.00;101790.31;10384864;28;20042;-65
2022/07/03 18:29:42;;;;;;;5.30;1.73;;;;;;;17.67;100.00;101802.84;10353096;28;20111;-65
2022/07/03 18:34:46;;;;;;;2.92;1.40;;;;;;;17.72;100.00;101807.59;10371811;28;20034;-65
2022/07/03 18:39:49;;;;;;;3.15;1.33;;;;;;;17.65;100.00;101807.88;10328950;28;20039;-64
2022/07/03 18:44:49;;;;;;;5.63;1.77;;;;;;;17.56;100.00;101806.75;10336165;28;20042;-65
2022/07/03 18:49:50;;;;;;;7.38;2.17;;;;;;;17.41;100.00;101806.75;10324280;28;20125;-65
2022/07/03 18:54:53;;;;;;;6.00;1.80;;;;;;;17.35;100.00;101801.16;10324408;28;20039;-64
2022/07/03 19:00:03;;;;;;;3.50;2.05;;;;;;;17.24;100.00;101805.06;10323433;28;20038;-65
2022/07/03 19:05:04;;;;;;;6.47;2.55;;;;;;;17.17;100.00;101809.22;10324505;28;20041;-64
2022/07/03 19:10:06;;;;;;;5.57;2.50;;;;;;;17.13;100.00;101820.91;10322313;28;20045;-65
2022/07/03 19:15:08;;;;;;;3.92;2.22;;;;;;;17.07;100.00;101822.00;10330488;28;20049;-63
2022/07/03 19:20:10;;;;;;;4.38;2.08;;;;;;;16.95;100.00;101818.66;10379575;28;20060;-64
2022/07/03 19:25:10;;;;;;;4.20;2.08;;;;;;;16.72;100.00;101829.13;10372527;28;20034;-65
2022/07/03 19:30:15;;;;;;;4.05;2.20;;;;;;;16.54;100.00;101830.44;10371976;28;20041;-64
2022/07/03 19:35:15;;;;;;;8.00;2.85;;;;;;;16.47;100.00;101832.59;10403495;28;20450;-65
2022/07/03 19:40:16;;;;;;;5.20;3.45;;;;;;;16.39;100.00;101832.28;10371535;28;20478;-65
2022/07/03 19:45:16;;;;;;;4.50;3.10;;;;;;;16.32;100.00;101833.38;10337017;28;20050;-64
2022/07/03 19:50:17;;;;;;;4.47;3.28;;;;;;;16.23;100.00;101837.78;10289972;28;20041;-64
2022/07/03 19:55:18;;;;;;;9.15;4.18;;;;;;;16.02;100.00;101822.06;10328325;28;20039;-65
2022/07/03 20:00:25;;;;;;;6.82;4.10;;;;;;;15.99;100.00;101836.50;10329605;28;20034;-64
2022/07/03 20:05:27;;;;;;;;;;;;;;;15.87;100.00;101847.81;10358812;28;20506;-64
2022/07/03 20:10:28;;;;;;;7.75;4.25;;;;;;;15.71;100.00;101855.16;10330996;28;19929;-65
2022/07/03 20:15:29;;;;;;;5.82;3.97;;;;;;;15.54;100.00;101845.03;10331166;28;20045;-64
2022/07/03 20:20:30;;;;;;;6.82;4.40;;;;;;;15.46;100.00;101866.84;10359908;28;20415;-65
2022/07/03 20:25:31;;;;;;;4.68;3.70;;;;;;;15.37;100.00;101869.28;10327882;28;20257;-65
2022/07/03 20:30:32;;;;;;;10.88;4.50;;;;;;;15.17;100.00;101860.75;10343243;28;20046;-64
2022/07/03 20:35:33;;;;;;;5.70;3.70;;;;;;;15.18;100.00;101865.22;10349472;28;20038;-65
2022/07/03 20:40:34;;;;;;;6.40;3.90;;;;;;;15.05;100.00;101864.53;10342379;28;20121;-64
2022/07/03 20:45:34;;;;;;;6.95;4.13;;;;;;;14.96;100.00;101866.06;10326533;28;20062;-65
2022/07/03 20:50:35;;;;;;;6.18;3.30;;;;;;;14.89;100.00;101868.22;10341890;28;20482;-64
2022/07/03 20:55:35;;;;;;;8.52;4.72;;;;;;;14.80;100.00;101872.50;10334172;28;20047;-64
2022/07/03 21:00:36;;;;;;;13.18;4.82;;;;;;;14.72;100.00;101866.34;10381152;28;20042;-62
2022/07/03 21:05:36;;;;;;;5.85;4.20;;;;;;;14.67;100.00;101869.03;10397643;28;20077;-64
2022/07/03 21:16:00;;;;;;;7.88;4.10;;;;;;;14.51;100.00;101862.44;10334574;28;20101;-64
2022/07/03 21:21:00;;;;;;;9.00;4.20;;;;;;;14.46;100.00;101873.44;10363373;28;20030;-65
2022/07/03 21:26:01;;;;;;;9.35;4.53;;;;;;;14.36;100.00;101883.56;10356386;28;20045;-64
2022/07/03 21:31:01;;;;;;;10.55;4.47;;;;;;;13.88;100.00;101834.09;10343818;28;20076;-65
2022/07/03 21:36:02;;;;;;;12.50;5.05;;;;;;;14.09;100.00;101889.81;10363172;28;20432;-65
2022/07/03 21:41:03;;;;;;;7.90;4.32;;;;;;;13.95;100.00;101891.22;10366493;28;20050;-64
2022/07/03 21:46:03;;;;;;;7.70;4.75;;;;;;;13.88;100.00;101908.03;10344048;28;20198;-65
2022/07/03 21:51:07;;;;;;;5.07;3.65;;;;;;;13.82;100.00;101903.50;10344293;28;20352;-64
2022/07/03 21:56:07;;;;;;;5.05;3.58;;;;;;;13.73;100.00;101909.44;10338547;28;20042;-65
2022/07/03 22:01:07;;;;;;;10.38;4.43;;;;;;;13.65;100.00;101915.38;10364205;28;20049;-65
2022/07/03 22:06:08;;;;;;;6.82;3.42;;;;;;;13.57;100.00;101920.50;10363391;28;20136;-66
2022/07/03 22:11:08;;;;;;;9.82;3.55;;;;;;;13.49;100.00;101914.25;10361881;28;20030;-66
2022/07/03 22:16:10;;;;;;;6.35;3.10;;;;;;;13.42;100.00;101918.28;10362379;28;20057;-65
2022/07/03 22:21:11;;;;;;;6.85;2.97;;;;;;;13.35;100.00;101920.34;10326382;28;20038;-65
2022/07/03 22:26:11;;;;;;;7.60;3.42;;;;;;;13.29;100.00;101903.66;10323290;28;20038;-65
2022/07/03 22:36:31;;;;;;;7.35;4.00;;;;;;;13.19;100.00;101908.09;10319914;28;20418;-65
2022/07/03 22:41:31;;;;;;;10.02;4.03;;;;;;;13.10;100.00;101904.91;10323528;28;20030;-64
2022/07/03 22:46:32;;;;;;;9.80;4.80;;;;;;;13.09;100.00;101900.47;10323828;28;20495;-65
2022/07/03 22:51:32;;;;;;;6.85;4.70;;;;;;;13.06;100.00;101893.50;10323096;28;20053;-65
2022/07/03 22:56:33;;;;;;;9.50;5.10;;;;;;;12.52;100.00;101813.66;10323607;28;20047;-65
2022/07/03 23:01:34;;;;;;;8.38;5.18;;;;;;;12.97;100.00;101894.97;10323769;28;20061;-65
2022/07/03 23:06:35;;;;;;;7.40;5.05;;;;;;;12.95;100.00;101894.38;10325037;28;20073;-65
2022/07/03 23:11:35;;;;;;;8.10;5.45;;;;;;;12.89;100.00;101893.44;10323818;28;20038;-64
2022/07/03 23:16:36;;;;;;;6.43;4.78;;;;;;;12.82;100.00;101892.75;10338111;28;20038;-65
2022/07/03 23:21:36;;;;;;;9.30;5.43;;;;;;;12.78;100.00;101879.66;10324063;28;20038;-65
2022/07/03 23:26:37;;;;;;;12.60;4.97;;;;;;;12.71;100.00;101886.16;10309010;28;20081;-64
2022/07/03 23:31:37;;;;;;;7.25;5.50;;;;;;;12.65;100.00;101878.84;10322809;28;20038;-64
2022/07/03 23:36:38;;;;;;;9.73;5.18;;;;;;;12.58;100.00;101880.91;10324447;28;20046;-64
2022/07/03 23:41:38;;;;;;;9.30;5.68;;;;;;;12.54;100.00;101885.22;10323064;28;20038;-64